createdAt,value
2023-03-30T00:03:51.443Z,16.98
2023-03-30T00:08:57.919Z,15.95
2023-03-30T00:14:00.315Z,15.07
2023-03-30T00:19:01.841Z,14.85
2023-03-30T00:24:03.534Z,15.80
2023-03-30T00:29:05.116Z,14.40
2023-03-30T00:34:06.815Z,13.27
2023-03-30T00:39:08.907Z,14.50
2023-03-30T00:44:48.376Z,14.80
2023-03-30T00:49:50.033Z,16.38
2023-03-30T00:54:54.116Z,17.05
2023-03-30T00:59:56.896Z,15.98
2023-03-30T01:04:58.579Z,16.05
2023-03-30T01:10:01.210Z,15.20
2023-03-30T01:15:03.064Z,16.15
2023-03-30T01:20:36.477Z,18.20
2023-03-30T01:26:08.426Z,16.88
2023-03-30T01:31:36.599Z,17.55
2023-03-30T01:37:27.298Z,17.30
2023-03-30T01:42:55.347Z,17.60
2023-03-30T01:48:21.165Z,17.48
2023-03-30T01:53:31.213Z,16.48
2023-03-30T01:58:39.213Z,18.13
2023-03-30T02:03:43.120Z,18.10
2023-03-30T02:08:49.633Z,18.38
2023-03-30T02:13:53.481Z,19.17
2023-03-30T02:18:55.487Z,17.25
2023-03-30T02:23:58.933Z,16.98
2023-03-30T02:29:00.436Z,19.30
2023-03-30T02:34:36.893Z,19.83
2023-03-30T02:39:58.954Z,14.95
2023-03-30T02:45:06.921Z,15.57
2023-03-30T02:50:21.497Z,14.02
2023-03-30T02:55:35.017Z,15.57
2023-03-30T03:00:50.659Z,14.13
2023-03-30T03:06:02.491Z,13.75
2023-03-30T03:11:07.975Z,12.27
2023-03-30T03:16:12.133Z,11.85
2023-03-30T03:21:18.435Z,11.82
2023-03-30T03:26:20.171Z,12.73
2023-03-30T03:31:22.119Z,11.88
2023-03-30T03:36:23.897Z,11.65
2023-03-30T03:41:27.994Z,11.45
2023-03-30T03:46:29.847Z,11.52
2023-03-30T03:51:32.922Z,11.13
2023-03-30T03:56:34.482Z,11.77
2023-03-30T04:01:36.184Z,11.63
2023-03-30T04:06:37.738Z,12.25
2023-03-30T04:11:39.286Z,12.25
2023-03-30T04:16:51.549Z,11.57
2023-03-30T04:22:19.772Z,12.75
2023-03-30T04:27:45.103Z,11.15
2023-03-30T04:33:09.751Z,11.73
2023-03-30T04:38:30.560Z,10.38
2023-03-30T04:44:06.326Z,8.30
2023-03-30T04:49:27.471Z,8.85
2023-03-30T04:54:49.232Z,8.55
2023-03-30T05:00:09.810Z,6.93
2023-03-30T05:05:36.619Z,6.95
2023-03-30T05:11:05.217Z,6.10
2023-03-30T05:21:46.338Z,3.08
2023-03-30T05:27:08.498Z,3.85
2023-03-30T05:32:36.625Z,2.95
2023-03-30T05:37:44.366Z,3.30
2023-03-30T05:43:03.271Z,2.78
2023-03-30T05:48:23.626Z,2.97
2023-03-30T05:53:45.902Z,2.58
2023-03-30T05:59:10.677Z,3.03
2023-03-30T06:04:31.523Z,2.83
2023-03-30T06:09:34.685Z,2.92
2023-03-30T06:14:42.787Z,3.08
2023-03-30T06:20:12.672Z,3.67
2023-03-30T06:25:23.448Z,2.45
2023-03-30T06:30:25.669Z,4.80
2023-03-30T06:35:30.783Z,4.53
2023-03-30T06:40:33.196Z,2.85
2023-03-30T06:45:34.828Z,3.58
2023-03-30T06:50:36.759Z,3.47
2023-03-30T06:55:42.639Z,3.38
2023-03-30T07:00:48.450Z,4.68
2023-03-30T07:06:10.643Z,6.78
2023-03-30T07:11:13.794Z,6.40
2023-03-30T07:16:15.647Z,6.28
2023-03-30T07:21:18.190Z,9.15
2023-03-30T07:26:19.865Z,9.00
2023-03-30T07:31:28.141Z,10.15
2023-03-30T07:36:30.313Z,9.18
2023-03-30T07:41:31.946Z,9.38
2023-03-30T07:46:35.018Z,7.78
2023-03-30T07:51:36.977Z,10.00
2023-03-30T07:56:45.335Z,10.20
2023-03-30T08:01:50.176Z,9.38
2023-03-30T08:07:12.546Z,9.35
2023-03-30T08:12:14.343Z,9.65
2023-03-30T08:17:16.120Z,9.45
2023-03-30T08:22:17.884Z,9.00
2023-03-30T08:27:19.508Z,9.65
2023-03-30T08:32:21.073Z,13.57
2023-03-30T08:37:22.688Z,12.38
2023-03-30T08:42:42.895Z,10.85
2023-03-30T08:47:49.091Z,9.57
2023-03-30T08:52:52.546Z,10.73
2023-03-30T08:58:13.095Z,9.32
2023-03-30T09:03:18.117Z,8.63
2023-03-30T09:08:22.867Z,8.45
2023-03-30T09:13:28.251Z,9.50
2023-03-30T09:18:32.585Z,6.63
2023-03-30T09:23:35.919Z,7.13
2023-03-30T09:28:48.718Z,7.03
2023-03-30T09:34:06.241Z,7.90
2023-03-30T09:39:20.777Z,7.32
2023-03-30T09:44:45.408Z,8.00
2023-03-30T09:49:47.254Z,5.68
2023-03-30T09:54:48.901Z,4.68
2023-03-30T09:59:52.732Z,4.90
2023-03-30T10:04:54.648Z,4.72
2023-03-30T10:09:58.811Z,4.65
2023-03-30T10:15:04.282Z,6.10
2023-03-30T10:20:34.918Z,5.78
2023-03-30T10:25:38.448Z,10.90
2023-03-30T10:30:40.057Z,17.10
2023-03-30T10:35:41.700Z,9.43
2023-03-30T10:40:45.050Z,6.55
2023-03-30T10:45:59.825Z,7.10
2023-03-30T10:51:19.195Z,5.68
2023-03-30T10:56:47.097Z,7.72
2023-03-30T11:02:18.137Z,7.50
2023-03-30T11:07:33.956Z,13.45
2023-03-30T11:12:41.352Z,7.15
2023-03-30T11:17:57.385Z,13.68
2023-03-30T11:23:18.567Z,10.60
2023-03-30T11:28:32.466Z,7.00
2023-03-30T11:33:47.970Z,10.13
2023-03-30T11:38:58.771Z,6.40
2023-03-30T11:44:00.724Z,6.47
2023-03-30T11:49:14.364Z,6.00
2023-03-30T11:54:22.785Z,4.95
2023-03-30T12:04:38.243Z,19.52
2023-03-30T12:09:54.819Z,19.42
2023-03-30T12:15:27.070Z,13.43
2023-03-30T12:20:37.624Z,10.70
2023-03-30T12:26:10.422Z,9.20
2023-03-30T12:31:12.705Z,5.20
2023-03-30T12:36:29.456Z,4.85
2023-03-30T12:41:42.042Z,5.63
2023-03-30T12:47:13.867Z,2.13
2023-03-30T12:52:53.867Z,2.92
2023-03-30T12:58:26.855Z,4.47
2023-03-30T13:03:52.928Z,3.33
2023-03-30T13:09:25.341Z,3.15
2023-03-30T13:14:29.911Z,2.75
2023-03-30T13:19:34.365Z,3.33
2023-03-30T13:24:41.738Z,3.13
2023-03-30T13:30:01.032Z,3.25
2023-03-30T13:35:15.771Z,3.03
2023-03-30T13:41:05.104Z,3.08
2023-03-30T13:46:19.395Z,3.70
2023-03-30T13:51:27.410Z,3.03
2023-03-30T13:56:35.681Z,2.70
2023-03-30T14:01:40.075Z,3.38
2023-03-30T14:06:45.887Z,2.53
2023-03-30T14:11:53.282Z,2.63
2023-03-30T14:16:56.318Z,2.45
2023-03-30T14:22:09.158Z,2.75
2023-03-30T14:27:15.800Z,2.55
2023-03-30T14:32:21.331Z,2.60
2023-03-30T14:37:26.095Z,3.17
2023-03-30T14:42:33.979Z,2.53
2023-03-30T14:47:37.551Z,3.03
2023-03-30T14:52:41.901Z,2.42
2023-03-30T14:57:44.022Z,2.25
2023-03-30T15:02:48.795Z,2.53
2023-03-30T15:07:52.114Z,2.35
2023-03-30T15:12:56.753Z,2.95
2023-03-30T15:17:59.783Z,3.10
2023-03-30T15:23:01.591Z,3.38
2023-03-30T15:28:09.707Z,2.35
2023-03-30T15:33:35.007Z,2.40
2023-03-30T15:38:56.058Z,3.08
2023-03-30T15:44:09.999Z,2.60
2023-03-30T15:49:20.360Z,3.17
2023-03-30T15:54:43.320Z,3.63
2023-03-30T15:59:49.874Z,3.67
2023-03-30T16:04:51.628Z,3.30
2023-03-30T16:09:53.271Z,3.08
2023-03-30T16:14:55.972Z,2.83
2023-03-30T16:19:57.488Z,3.13
2023-03-30T16:25:00.716Z,3.00
2023-03-30T16:30:13.469Z,3.28
2023-03-30T16:35:15.243Z,3.00
2023-03-30T16:40:40.229Z,3.70
2023-03-30T16:45:43.375Z,3.17
2023-03-30T16:50:46.912Z,5.07
2023-03-30T16:55:48.706Z,3.10
2023-03-30T17:00:52.963Z,3.28
2023-03-30T17:05:54.873Z,2.40
2023-03-30T17:11:00.901Z,2.17
2023-03-30T17:16:02.975Z,1.92
2023-03-30T17:21:05.169Z,3.20
2023-03-30T17:26:08.893Z,1.35
2023-03-30T17:31:21.761Z,1.88
2023-03-30T17:36:25.453Z,1.23
2023-03-30T17:41:27.062Z,0.93
2023-03-30T17:46:29.124Z,1.17
2023-03-30T17:51:30.912Z,1.17
2023-03-30T17:56:32.498Z,1.23
2023-03-30T18:01:36.093Z,1.27
2023-03-30T18:06:37.995Z,0.88
2023-03-30T18:11:39.742Z,1.02
2023-03-30T18:16:43.628Z,1.10
2023-03-30T18:21:45.559Z,3.28
2023-03-30T18:26:47.103Z,4.75
2023-03-30T18:31:49.470Z,2.58
2023-03-30T18:36:51.670Z,1.00
2023-03-30T18:41:53.386Z,1.00
2023-03-30T18:46:54.971Z,1.10
2023-03-30T18:51:56.513Z,1.15
2023-03-30T18:56:58.089Z,1.25
2023-03-30T19:01:59.700Z,0.80
2023-03-30T19:07:01.346Z,1.35
2023-03-30T19:12:03.258Z,2.75
2023-03-30T19:17:04.840Z,1.58
2023-03-30T19:22:06.449Z,1.30
2023-03-30T19:27:08.087Z,1.17
2023-03-30T19:32:11.695Z,1.23
2023-03-30T19:37:15.889Z,1.52
2023-03-30T19:42:17.653Z,1.50
2023-03-30T19:47:19.163Z,1.40
2023-03-30T19:52:20.999Z,1.55
2023-03-30T19:57:23.403Z,2.25
2023-03-30T20:02:25.394Z,2.00
2023-03-30T20:07:27.076Z,2.03
2023-03-30T20:12:29.550Z,5.70
2023-03-30T20:17:31.401Z,4.68
2023-03-30T20:22:37.634Z,5.82
2023-03-30T20:27:40.081Z,2.25
2023-03-30T20:32:41.757Z,2.88
2023-03-30T20:37:43.337Z,1.90
2023-03-30T20:42:48.062Z,2.25
2023-03-30T20:47:50.062Z,1.88
2023-03-30T20:52:53.740Z,2.65
2023-03-30T20:57:55.277Z,2.65
2023-03-30T21:02:56.891Z,1.70
2023-03-30T21:08:00.112Z,2.13
2023-03-30T21:13:01.909Z,1.52
2023-03-30T21:18:03.855Z,2.00
2023-03-30T21:23:05.404Z,2.25
2023-03-30T21:28:06.967Z,2.30
2023-03-30T21:33:08.616Z,3.15
2023-03-30T21:38:10.286Z,1.80
2023-03-30T21:43:11.984Z,1.70
2023-03-30T21:48:14.798Z,1.50
2023-03-30T21:53:17.302Z,1.67
2023-03-30T21:58:18.966Z,1.92
2023-03-30T22:03:21.170Z,2.95
2023-03-30T22:08:22.772Z,1.95
2023-03-30T22:13:24.423Z,2.20
2023-03-30T22:18:26.067Z,2.55
2023-03-30T22:23:27.767Z,2.58
2023-03-30T22:28:29.333Z,5.43
2023-03-30T22:33:31.083Z,6.80
2023-03-30T22:38:32.701Z,3.65
2023-03-30T22:43:35.747Z,3.42
2023-03-30T22:48:37.604Z,4.00
2023-03-30T22:53:39.124Z,2.53
2023-03-30T22:58:40.702Z,1.98
2023-03-30T23:03:42.413Z,2.58
2023-03-30T23:08:47.183Z,2.00
2023-03-30T23:13:49.457Z,2.30
2023-03-30T23:18:51.097Z,2.30
2023-03-30T23:23:52.648Z,2.15
2023-03-30T23:28:54.215Z,3.20
2023-03-30T23:33:56.848Z,4.53
2023-03-30T23:38:58.513Z,6.68
2023-03-30T23:44:00.598Z,4.40
2023-03-30T23:49:03.468Z,2.35
2023-03-30T23:54:08.371Z,3.10
2023-03-30T23:59:11.114Z,3.10
